Airport ICAO


04:34 UTC

7°C

Broken clouds


An affordable passengers' Moving Map for your aircraft. Made for the iPad and the iPhone
More information here

LFMN Cote D'Azur


Nice FRANCE   VFR


METAR LFMN 220400Z 33008KT 9999 BKN018 07/03 Q1026 NOSIG 0h34min

TAF LFMN 220200Z 2203/2309 34010KT CAVOK TEMPO 2203/2210 BKN014 BECMG 2209/2211 17005KT CAVOK BECMG 2218/2219 34010KT BECMG 2307/2309 09015KT 2h34min





NOTAMS

OPEN